createdAt,value
2019-02-21T00:01:44.640Z,7.40
2019-02-21T00:04:16.878Z,7.40
2019-02-21T00:06:48.061Z,7.40
2019-02-21T00:09:20.015Z,7.40
2019-02-21T00:11:51.870Z,7.40
2019-02-21T00:14:23.071Z,7.40
2019-02-21T00:16:53.911Z,7.50
2019-02-21T00:19:25.020Z,7.40
2019-02-21T00:21:56.026Z,7.50
2019-02-21T00:24:28.266Z,7.60
2019-02-21T00:26:58.940Z,7.50
2019-02-21T00:29:30.061Z,7.50
2019-02-21T00:32:02.075Z,7.40
2019-02-21T00:34:33.507Z,7.40
2019-02-21T00:37:04.830Z,7.30
2019-02-21T00:39:36.989Z,7.30
2019-02-21T00:42:07.713Z,7.30
2019-02-21T00:44:38.619Z,7.20
2019-02-21T00:47:09.554Z,7.20
2019-02-21T00:49:40.482Z,7.30
2019-02-21T00:52:11.923Z,7.20
2019-02-21T00:54:42.857Z,7.20
2019-02-21T00:57:13.411Z,7.20
2019-02-21T00:59:44.459Z,7.20
2019-02-21T01:02:15.871Z,7.20
2019-02-21T01:04:48.551Z,7.20
2019-02-21T01:07:19.940Z,7.10
2019-02-21T01:09:51.037Z,7.20
2019-02-21T01:12:22.459Z,7.10
2019-02-21T01:14:53.750Z,7.10
2019-02-21T01:17:24.369Z,7.10
2019-02-21T01:20:14.229Z,7.20
2019-02-21T01:22:45.253Z,7.10
2019-02-21T01:25:15.740Z,7.10
2019-02-21T01:27:46.537Z,7.10
2019-02-21T01:30:17.558Z,7.10
2019-02-21T01:32:48.703Z,7.10
2019-02-21T01:35:19.782Z,7.00
2019-02-21T01:37:50.658Z,7.00
2019-02-21T01:40:22.127Z,6.90
2019-02-21T01:42:53.649Z,6.90
2019-02-21T01:45:24.903Z,6.90
2019-02-21T01:47:56.035Z,6.80
2019-02-21T01:50:27.726Z,6.80
2019-02-21T01:52:59.713Z,6.80
2019-02-21T01:55:30.326Z,6.80
2019-02-21T01:58:00.825Z,6.80
2019-02-21T02:00:32.290Z,6.80
2019-02-21T02:03:03.066Z,6.80
2019-02-21T02:05:33.919Z,6.70
2019-02-21T02:08:04.780Z,6.80
2019-02-21T02:10:35.700Z,6.70
2019-02-21T02:13:07.127Z,6.70
2019-02-21T02:15:38.444Z,6.70
2019-02-21T02:18:09.327Z,6.70
2019-02-21T02:20:40.104Z,6.70
2019-02-21T02:23:11.655Z,6.70
2019-02-21T02:25:42.418Z,6.70
2019-02-21T02:28:14.038Z,6.70
2019-02-21T02:30:45.161Z,6.60
2019-02-21T02:33:17.915Z,6.60
2019-02-21T02:35:49.325Z,6.70
2019-02-21T02:38:21.264Z,6.60
2019-02-21T02:40:51.977Z,6.60
2019-02-21T02:43:24.873Z,6.70
2019-02-21T02:45:55.985Z,6.70
2019-02-21T02:48:27.287Z,6.60
2019-02-21T02:50:58.305Z,6.70
2019-02-21T02:53:29.181Z,6.60
2019-02-21T02:56:00.692Z,6.60
2019-02-21T02:58:31.300Z,6.70
2019-02-21T03:01:02.226Z,6.70
2019-02-21T03:03:33.234Z,6.60
2019-02-21T03:06:04.023Z,6.60
2019-02-21T03:08:35.236Z,6.60
2019-02-21T03:11:06.157Z,6.60
2019-02-21T03:13:36.980Z,6.60
2019-02-21T03:16:07.858Z,6.60
2019-02-21T03:18:39.193Z,6.60
2019-02-21T03:21:10.391Z,6.60
2019-02-21T03:23:44.125Z,6.50
2019-02-21T03:26:15.725Z,6.50
2019-02-21T03:28:46.162Z,6.50
2019-02-21T03:31:17.154Z,6.50
2019-02-21T03:33:49.043Z,6.50
2019-02-21T03:36:20.065Z,6.60
2019-02-21T03:38:51.477Z,6.50
2019-02-21T03:41:22.857Z,6.50
2019-02-21T03:43:53.595Z,6.50
2019-02-21T03:46:25.772Z,6.50
2019-02-21T03:48:56.391Z,6.40
2019-02-21T03:51:27.361Z,6.40
2019-02-21T03:53:58.874Z,6.40
2019-02-21T03:56:30.934Z,6.50
2019-02-21T03:59:01.986Z,6.50
2019-02-21T04:01:33.112Z,6.40
2019-02-21T04:04:04.106Z,6.40
2019-02-21T04:06:35.422Z,6.40
2019-02-21T04:09:08.618Z,6.40
2019-02-21T04:11:39.608Z,6.40
2019-02-21T04:14:10.645Z,6.40
2019-02-21T04:16:42.092Z,6.40
2019-02-21T04:19:13.300Z,6.40
2019-02-21T04:21:44.781Z,6.30
2019-02-21T04:24:16.096Z,6.40
2019-02-21T04:26:47.183Z,6.50
2019-02-21T04:29:18.543Z,6.50
2019-02-21T04:31:50.041Z,6.50
2019-02-21T04:34:20.836Z,6.50
2019-02-21T04:36:52.587Z,6.40
2019-02-21T04:39:23.937Z,6.50
2019-02-21T04:41:56.359Z,6.50
2019-02-21T04:44:27.022Z,6.50
2019-02-21T04:46:58.324Z,6.50
2019-02-21T04:49:29.358Z,6.50
2019-02-21T04:52:01.322Z,6.50
2019-02-21T04:54:32.477Z,6.40
2019-02-21T04:57:03.530Z,6.50
2019-02-21T04:59:34.584Z,6.40
2019-02-21T05:02:05.545Z,6.40
2019-02-21T05:04:36.212Z,6.40
2019-02-21T05:07:07.367Z,6.30
2019-02-21T05:09:38.697Z,6.30
2019-02-21T05:12:09.583Z,6.20
2019-02-21T05:14:41.437Z,6.20
2019-02-21T05:17:12.504Z,6.20
2019-02-21T05:19:43.318Z,6.10
2019-02-21T05:22:14.091Z,6.10
2019-02-21T05:24:45.371Z,6.10
2019-02-21T05:27:20.511Z,6.10
2019-02-21T05:29:51.613Z,6.10
2019-02-21T05:32:40.907Z,6.00
2019-02-21T05:35:20.178Z,6.00
2019-02-21T05:38:15.859Z,6.00
2019-02-21T05:41:16.131Z,5.80
2019-02-21T05:44:04.635Z,5.80
2019-02-21T05:47:06.390Z,5.80
2019-02-21T05:49:56.582Z,5.70
2019-02-21T05:52:32.255Z,5.70
2019-02-21T05:55:31.023Z,5.70
2019-02-21T05:58:15.887Z,5.80
2019-02-21T06:00:53.085Z,5.80
2019-02-21T06:03:58.122Z,5.80
2019-02-21T06:06:53.738Z,5.70
2019-02-21T06:09:42.630Z,5.60
2019-02-21T06:12:44.663Z,5.60
2019-02-21T06:15:34.799Z,5.60
2019-02-21T06:18:17.817Z,5.70
2019-02-21T06:21:13.474Z,5.80
2019-02-21T06:24:02.124Z,5.90
2019-02-21T06:27:00.762Z,5.90
2019-02-21T06:29:48.967Z,6.00
2019-02-21T06:32:20.022Z,6.10
2019-02-21T06:34:52.451Z,6.10
2019-02-21T06:37:24.453Z,6.20
2019-02-21T06:39:54.883Z,6.30
2019-02-21T06:42:25.354Z,6.50
2019-02-21T06:44:55.800Z,6.50
2019-02-21T06:47:27.524Z,6.40
2019-02-21T06:49:59.221Z,6.50
2019-02-21T06:52:29.966Z,6.50
2019-02-21T06:55:02.350Z,6.60
2019-02-21T06:57:33.434Z,6.70
2019-02-21T07:00:05.511Z,6.80
2019-02-21T07:02:36.606Z,6.90
2019-02-21T07:05:07.875Z,7.20
2019-02-21T07:07:39.601Z,7.40
2019-02-21T07:10:10.571Z,7.50
2019-02-21T07:12:41.417Z,7.60
2019-02-21T07:15:15.025Z,7.70
2019-02-21T07:17:49.398Z,7.80
2019-02-21T07:20:19.655Z,7.90
2019-02-21T07:22:51.061Z,8.10
2019-02-21T07:25:43.826Z,8.20
2019-02-21T07:28:15.973Z,8.30
2019-02-21T07:30:47.382Z,8.20
2019-02-21T07:33:27.743Z,8.30
2019-02-21T07:35:51.603Z,8.30
2019-02-21T07:38:23.380Z,8.30
2019-02-21T07:40:54.774Z,8.30
2019-02-21T07:43:25.492Z,8.40
2019-02-21T07:45:56.346Z,8.40
2019-02-21T07:48:27.235Z,8.60
2019-02-21T07:50:57.927Z,8.90
2019-02-21T07:53:29.935Z,9.10
2019-02-21T07:56:00.827Z,9.20
2019-02-21T07:58:32.014Z,9.20
2019-02-21T08:01:02.984Z,9.10
2019-02-21T08:03:43.808Z,8.90
2019-02-21T08:06:06.373Z,8.90
2019-02-21T08:08:51.095Z,8.90
2019-02-21T08:11:24.039Z,8.90
2019-02-21T08:13:54.759Z,8.90
2019-02-21T08:16:26.421Z,8.80
2019-02-21T08:18:59.170Z,9.00
2019-02-21T08:21:30.733Z,8.90
2019-02-21T08:24:01.847Z,8.70
2019-02-21T08:26:33.075Z,8.60
2019-02-21T08:29:06.112Z,8.50
2019-02-21T08:31:37.743Z,8.60
2019-02-21T08:34:12.816Z,8.60
2019-02-21T08:36:44.146Z,8.70
2019-02-21T08:39:14.999Z,8.90
2019-02-21T08:41:45.771Z,9.00
2019-02-21T08:44:16.550Z,9.10
2019-02-21T08:46:47.814Z,9.10
2019-02-21T08:49:18.573Z,9.20
2019-02-21T08:51:49.863Z,9.20
2019-02-21T08:54:21.832Z,9.20
2019-02-21T08:56:53.354Z,9.30
2019-02-21T08:59:24.094Z,9.10
2019-02-21T09:01:55.242Z,9.10
2019-02-21T09:04:27.764Z,9.20
2019-02-21T09:06:58.103Z,9.30
2019-02-21T09:09:29.348Z,9.60
2019-02-21T09:12:00.461Z,9.90
2019-02-21T09:14:31.722Z,10.10
2019-02-21T09:17:02.469Z,10.30
2019-02-21T09:19:33.104Z,10.30
2019-02-21T09:22:04.199Z,10.20
2019-02-21T09:24:40.186Z,10.00
2019-02-21T09:27:08.622Z,10.00
2019-02-21T09:29:40.346Z,10.00
2019-02-21T09:32:11.026Z,10.10
2019-02-21T09:34:41.792Z,10.00
2019-02-21T09:37:16.116Z,10.10
2019-02-21T09:39:49.574Z,10.20
2019-02-21T09:42:20.430Z,10.30
2019-02-21T09:44:51.366Z,10.20
2019-02-21T09:47:22.474Z,10.10
2019-02-21T09:49:56.453Z,9.90
2019-02-21T09:52:27.739Z,9.60
2019-02-21T09:54:59.119Z,9.60
2019-02-21T09:57:31.205Z,9.60
2019-02-21T10:00:01.951Z,9.80
2019-02-21T10:02:32.782Z,9.80
2019-02-21T10:05:05.653Z,9.80
2019-02-21T10:07:37.644Z,9.90
2019-02-21T10:10:10.750Z,9.80
2019-02-21T10:12:41.955Z,9.90
2019-02-21T10:15:13.206Z,9.90
2019-02-21T10:17:44.829Z,10.00
2019-02-21T10:20:17.894Z,10.10
2019-02-21T10:22:49.133Z,10.10
2019-02-21T10:25:23.199Z,10.10
2019-02-21T10:27:54.166Z,10.00
2019-02-21T10:30:25.251Z,9.90
2019-02-21T10:32:55.902Z,9.90
2019-02-21T10:35:26.524Z,9.70
2019-02-21T10:37:57.387Z,9.60
2019-02-21T10:40:33.355Z,9.60
2019-02-21T10:43:03.904Z,9.60
2019-02-21T10:45:47.048Z,9.70
2019-02-21T10:48:08.363Z,9.90
2019-02-21T10:50:39.140Z,10.00
2019-02-21T10:53:10.227Z,10.10
2019-02-21T10:55:40.990Z,10.10
2019-02-21T10:58:12.572Z,10.10
2019-02-21T11:00:43.436Z,10.00
2019-02-21T11:03:14.916Z,9.80
2019-02-21T11:05:46.422Z,9.60
2019-02-21T11:08:17.624Z,9.50
2019-02-21T11:10:48.973Z,9.40
2019-02-21T11:13:19.797Z,9.40
2019-02-21T11:15:51.049Z,9.50
2019-02-21T11:18:21.867Z,9.50
2019-02-21T11:20:52.703Z,9.60
2019-02-21T11:23:23.482Z,9.80
2019-02-21T11:25:55.173Z,9.90
2019-02-21T11:28:26.038Z,10.00
2019-02-21T11:30:58.430Z,9.90
2019-02-21T11:33:30.251Z,9.90
2019-02-21T11:36:01.443Z,9.90
2019-02-21T11:38:32.439Z,9.80
2019-02-21T11:41:04.388Z,9.80
2019-02-21T11:43:35.378Z,9.90
2019-02-21T11:46:07.255Z,10.00
2019-02-21T11:48:38.148Z,10.00
2019-02-21T11:51:09.255Z,10.00
2019-02-21T11:53:40.611Z,10.20
2019-02-21T11:56:12.869Z,10.20
2019-02-21T11:58:43.630Z,10.30
2019-02-21T12:01:14.624Z,10.30
2019-02-21T12:03:45.507Z,10.30
2019-02-21T12:06:16.179Z,10.20
2019-02-21T12:08:47.111Z,10.30
2019-02-21T12:11:17.959Z,10.20
2019-02-21T12:13:49.437Z,10.30
2019-02-21T12:16:20.203Z,10.50
2019-02-21T12:18:51.075Z,10.60
2019-02-21T12:21:24.966Z,10.70
2019-02-21T12:23:56.528Z,10.70
2019-02-21T12:26:27.385Z,10.60
2019-02-21T12:28:58.944Z,10.60
2019-02-21T12:31:30.001Z,10.50
2019-02-21T12:34:00.987Z,10.60
2019-02-21T12:36:32.343Z,10.50
2019-02-21T12:39:06.169Z,10.30
2019-02-21T12:41:37.263Z,10.10
2019-02-21T12:44:08.160Z,9.90
2019-02-21T12:46:39.041Z,9.70
2019-02-21T12:49:10.802Z,9.50
2019-02-21T12:51:42.583Z,9.40
2019-02-21T12:54:20.832Z,9.30
2019-02-21T12:56:52.035Z,9.20
2019-02-21T12:59:23.920Z,9.20
2019-02-21T13:01:55.416Z,9.00
2019-02-21T13:04:27.349Z,8.90
2019-02-21T13:06:58.757Z,8.90
2019-02-21T13:09:29.434Z,8.80
2019-02-21T13:12:02.136Z,8.70
2019-02-21T13:14:33.316Z,8.70
2019-02-21T13:17:04.026Z,8.60
2019-02-21T13:19:35.382Z,8.60
2019-02-21T13:22:06.865Z,8.40
2019-02-21T13:24:38.184Z,8.30
2019-02-21T13:27:09.388Z,8.30
2019-02-21T13:29:40.637Z,8.30
2019-02-21T13:32:11.709Z,8.30
2019-02-21T13:34:42.754Z,8.20
2019-02-21T13:37:14.130Z,8.20
2019-02-21T13:39:44.989Z,8.30
2019-02-21T13:42:17.360Z,8.20
2019-02-21T13:44:48.399Z,8.20
2019-02-21T13:47:19.125Z,8.20
2019-02-21T13:49:52.663Z,8.20
2019-02-21T13:52:23.366Z,8.10
2019-02-21T13:54:54.717Z,8.00
2019-02-21T13:57:28.392Z,8.00
2019-02-21T13:59:59.215Z,8.10
2019-02-21T14:02:29.774Z,8.10
2019-02-21T14:05:00.882Z,8.10
2019-02-21T14:07:32.465Z,8.10
2019-02-21T14:10:03.392Z,7.90
2019-02-21T14:12:36.578Z,7.80
2019-02-21T14:15:11.136Z,7.80
2019-02-21T14:17:41.715Z,7.80
2019-02-21T14:20:12.621Z,7.90
2019-02-21T14:22:44.292Z,7.90
2019-02-21T14:25:15.902Z,7.90
2019-02-21T14:27:46.785Z,7.80
2019-02-21T14:30:19.074Z,7.80
2019-02-21T14:32:50.331Z,7.80
2019-02-21T14:35:21.425Z,7.80
2019-02-21T14:37:59.512Z,7.80
2019-02-21T14:40:30.545Z,7.80
2019-02-21T14:43:01.347Z,7.80
2019-02-21T14:45:32.341Z,7.80
2019-02-21T14:48:03.580Z,7.80
2019-02-21T14:50:36.060Z,7.80
2019-02-21T14:53:06.950Z,7.70
2019-02-21T14:55:37.622Z,7.80
2019-02-21T14:58:08.682Z,7.70
2019-02-21T15:00:43.360Z,7.70
2019-02-21T15:03:21.969Z,7.70
2019-02-21T15:05:48.528Z,7.70
2019-02-21T15:08:22.816Z,7.60
2019-02-21T15:10:54.769Z,7.60
2019-02-21T15:13:25.899Z,7.60
2019-02-21T15:15:57.844Z,7.60
2019-02-21T15:18:29.076Z,7.50
2019-02-21T15:21:01.079Z,7.50
2019-02-21T15:23:33.038Z,7.50
2019-02-21T15:26:05.305Z,7.50
2019-02-21T15:28:37.846Z,7.50
2019-02-21T15:31:09.286Z,7.50
2019-02-21T15:33:40.313Z,7.50
2019-02-21T15:36:11.747Z,7.40
2019-02-21T15:38:43.627Z,7.40
2019-02-21T15:41:14.990Z,7.50
2019-02-21T15:43:47.046Z,7.50
2019-02-21T15:46:18.315Z,7.50
2019-02-21T15:48:49.803Z,7.50
2019-02-21T15:51:21.281Z,7.50
2019-02-21T15:53:52.714Z,7.50
2019-02-21T15:56:24.323Z,7.50
2019-02-21T15:58:55.518Z,7.60
2019-02-21T16:01:26.744Z,7.50
2019-02-21T16:03:59.238Z,7.50
2019-02-21T16:06:30.645Z,7.50
2019-02-21T16:09:01.806Z,7.40
2019-02-21T16:11:32.799Z,7.50
2019-02-21T16:14:06.119Z,7.50
2019-02-21T16:16:37.781Z,7.50
2019-02-21T16:19:09.478Z,7.50
2019-02-21T16:21:41.783Z,7.50
2019-02-21T16:24:12.673Z,7.50
2019-02-21T16:26:45.238Z,7.40
2019-02-21T16:29:16.670Z,7.50
2019-02-21T16:31:48.283Z,7.50
2019-02-21T16:34:20.141Z,7.50
2019-02-21T16:37:02.154Z,7.50
2019-02-21T16:39:26.240Z,7.40
2019-02-21T16:42:09.036Z,7.40
2019-02-21T16:44:40.454Z,7.40
2019-02-21T16:47:12.336Z,7.50
2019-02-21T16:49:44.021Z,7.40
2019-02-21T16:52:16.066Z,7.30
2019-02-21T16:54:47.283Z,7.40
2019-02-21T16:57:21.900Z,7.40
2019-02-21T16:59:53.880Z,7.40
2019-02-21T17:02:27.403Z,7.40
2019-02-21T17:05:00.668Z,7.40
2019-02-21T17:07:32.351Z,7.30
2019-02-21T17:10:04.933Z,7.30
2019-02-21T17:12:37.417Z,7.30
2019-02-21T17:15:09.475Z,7.30
2019-02-21T17:17:41.232Z,7.30
2019-02-21T17:20:14.671Z,7.30
2019-02-21T17:22:47.373Z,7.30
2019-02-21T17:25:21.943Z,7.30
2019-02-21T17:27:54.749Z,7.30
2019-02-21T17:30:25.912Z,7.30
2019-02-21T17:32:58.847Z,7.40
2019-02-21T17:35:31.701Z,7.40
2019-02-21T17:38:03.508Z,7.40
2019-02-21T17:40:35.391Z,7.40
2019-02-21T17:43:07.332Z,7.40
2019-02-21T17:45:39.283Z,7.40
2019-02-21T17:48:11.683Z,7.40
2019-02-21T17:50:43.638Z,7.40
2019-02-21T17:53:16.105Z,7.40
2019-02-21T17:55:48.294Z,7.40
2019-02-21T17:58:20.033Z,7.40
2019-02-21T18:00:53.564Z,7.40
2019-02-21T18:03:26.827Z,7.40
2019-02-21T18:05:58.848Z,7.30
2019-02-21T18:08:31.686Z,7.40
2019-02-21T18:11:03.122Z,7.40
2019-02-21T18:13:35.397Z,7.40
2019-02-21T18:16:07.838Z,7.40
2019-02-21T18:18:40.436Z,7.40
2019-02-21T18:21:12.871Z,7.40
2019-02-21T18:23:45.226Z,7.40
2019-02-21T18:26:22.622Z,7.40
2019-02-21T18:28:54.922Z,7.40
2019-02-21T18:31:27.884Z,7.40
2019-02-21T18:34:00.330Z,7.40
2019-02-21T18:36:33.112Z,7.40
2019-02-21T18:39:08.285Z,7.50
2019-02-21T18:41:40.249Z,7.50
2019-02-21T18:44:12.235Z,7.60
2019-02-21T18:46:44.394Z,7.70
2019-02-21T18:49:16.345Z,7.70
2019-02-21T18:51:48.741Z,7.70
2019-02-21T18:54:21.261Z,7.80
2019-02-21T18:56:54.182Z,7.80
2019-02-21T18:59:31.766Z,7.90
2019-02-21T19:01:58.911Z,7.90
2019-02-21T19:04:31.103Z,7.80
2019-02-21T19:07:04.097Z,7.90
2019-02-21T19:09:36.782Z,7.90
2019-02-21T19:12:08.865Z,7.90
2019-02-21T19:14:41.096Z,7.80
2019-02-21T19:17:14.103Z,7.90
2019-02-21T19:19:47.931Z,7.90
2019-02-21T19:22:19.982Z,7.80
2019-02-21T19:24:51.844Z,7.90
2019-02-21T19:27:23.671Z,7.90
2019-02-21T19:29:56.356Z,7.90
2019-02-21T19:32:28.904Z,7.90
2019-02-21T19:35:01.038Z,7.90
2019-02-21T19:37:33.380Z,7.80
2019-02-21T19:40:06.361Z,7.90
2019-02-21T19:42:39.531Z,7.90
2019-02-21T19:45:12.125Z,7.90
2019-02-21T19:47:43.779Z,7.80
2019-02-21T19:50:15.811Z,7.80
2019-02-21T19:52:48.040Z,7.80
2019-02-21T19:55:20.128Z,7.80
2019-02-21T19:57:51.718Z,7.80
2019-02-21T20:00:25.116Z,7.90
2019-02-21T20:03:00.180Z,7.80
2019-02-21T20:05:32.559Z,7.80
2019-02-21T20:08:08.716Z,7.80
2019-02-21T20:10:38.959Z,7.80
2019-02-21T20:13:13.606Z,7.80
2019-02-21T20:15:46.297Z,7.90
2019-02-21T20:18:18.395Z,7.90
2019-02-21T20:20:50.439Z,7.90
2019-02-21T20:23:22.285Z,7.90
2019-02-21T20:25:55.745Z,7.90
2019-02-21T20:28:27.754Z,7.90
2019-02-21T20:30:59.712Z,7.90
2019-02-21T20:33:32.752Z,8.00
2019-02-21T20:36:05.157Z,8.00
2019-02-21T20:38:37.891Z,8.00
2019-02-21T20:41:09.805Z,8.00
2019-02-21T20:43:42.522Z,8.00
2019-02-21T20:46:14.038Z,7.90
2019-02-21T20:48:46.442Z,7.90
2019-02-21T20:51:19.110Z,7.90
2019-02-21T20:53:50.316Z,7.80
2019-02-21T20:56:22.591Z,7.70
2019-02-21T20:58:54.587Z,7.60
2019-02-21T21:01:28.430Z,7.60
2019-02-21T21:04:01.467Z,7.50
2019-02-21T21:06:33.362Z,7.50
2019-02-21T21:09:07.026Z,7.50
2019-02-21T21:11:39.233Z,7.40
2019-02-21T21:14:11.184Z,7.50
2019-02-21T21:16:44.343Z,7.50
2019-02-21T21:19:17.535Z,7.50
2019-02-21T21:21:51.158Z,7.50
2019-02-21T21:24:23.190Z,7.50
2019-02-21T21:26:55.052Z,7.40
2019-02-21T21:29:26.426Z,7.40
2019-02-21T21:31:58.822Z,7.40
2019-02-21T21:34:30.786Z,7.40
2019-02-21T21:37:02.193Z,7.40
2019-02-21T21:39:34.073Z,7.30
2019-02-21T21:42:08.201Z,7.30
2019-02-21T21:44:39.511Z,7.30
2019-02-21T21:47:12.123Z,7.40
2019-02-21T21:49:44.252Z,7.40
2019-02-21T21:52:16.511Z,7.40
2019-02-21T21:54:47.822Z,7.50
2019-02-21T21:57:19.705Z,7.50
2019-02-21T21:59:50.976Z,7.40
2019-02-21T22:02:22.856Z,7.50
2019-02-21T22:04:53.780Z,7.50
2019-02-21T22:07:24.348Z,7.50
2019-02-21T22:09:55.187Z,7.60
2019-02-21T22:12:26.106Z,7.60
2019-02-21T22:14:57.333Z,7.60
2019-02-21T22:17:32.659Z,7.50
2019-02-21T22:20:03.625Z,7.60
2019-02-21T22:22:37.680Z,7.60
2019-02-21T22:25:09.624Z,7.60
2019-02-21T22:27:40.465Z,7.70
2019-02-21T22:30:36.760Z,7.70
2019-02-21T22:33:26.565Z,7.70
2019-02-21T22:36:17.176Z,7.80
2019-02-21T22:38:49.348Z,7.80
2019-02-21T22:41:19.958Z,7.80
2019-02-21T22:43:51.099Z,7.80
2019-02-21T22:46:22.743Z,7.80
2019-02-21T22:48:54.477Z,7.80
2019-02-21T22:51:29.023Z,7.80
2019-02-21T22:54:00.085Z,7.90
2019-02-21T22:56:39.887Z,7.90
2019-02-21T22:59:10.874Z,7.90
2019-02-21T23:01:44.040Z,7.90
2019-02-21T23:04:41.123Z,8.00
2019-02-21T23:07:33.762Z,8.00
2019-02-21T23:10:04.827Z,8.00
2019-02-21T23:12:36.151Z,8.00
2019-02-21T23:15:08.193Z,8.00
2019-02-21T23:17:38.703Z,8.10
2019-02-21T23:20:10.989Z,8.00
2019-02-21T23:22:42.037Z,8.00
2019-02-21T23:25:12.026Z,8.10
2019-02-21T23:27:42.925Z,8.00
2019-02-21T23:30:15.029Z,8.00
2019-02-21T23:32:46.180Z,8.00
2019-02-21T23:35:22.378Z,7.90
2019-02-21T23:37:54.421Z,8.00
2019-02-21T23:40:25.660Z,8.10
2019-02-21T23:42:56.513Z,8.10
2019-02-21T23:45:27.235Z,8.10
2019-02-21T23:47:58.855Z,8.10
2019-02-21T23:50:29.298Z,8.10
2019-02-21T23:53:00.258Z,8.10
2019-02-21T23:55:30.999Z,7.90
2019-02-21T23:58:02.517Z,7.90
